Time;durP1;ratioP1;P1;durP2;ratioP2;P2;SDS_P1;SDS_P2;PMS_P1;PMS_P2;Temp;Humidity;BMP_temperature;BMP_pressure;BME280_temperature;BME280_humidity;BME280_pressure;Samples;Min_cycle;Max_cycle;Signal;HPM_P1;HPM_P2
2023/10/12 00:00:52;;;;;;;20.95;13.73;;;;;;;;;;6248359;28;20061;-77
2023/10/12 00:03:59;;;;;;;23.73;14.55;;;;;;;;;;6249330;28;20072;-79
2023/10/12 00:07:08;;;;;;;23.45;14.60;;;;;;;;;;6252714;28;20111;-78
2023/10/12 00:10:21;;;;;;;23.80;14.52;;;;;;;;;;6255047;28;20049;-77
2023/10/12 00:13:28;;;;;;;22.13;13.55;;;;;;;;;;6249530;28;20049;-77
2023/10/12 00:16:30;;;;;;;24.30;13.98;;;;;;;;;;6230083;28;20417;-78
2023/10/12 00:19:32;;;;;;;22.85;13.05;;;;;;;;;;6230632;28;20103;-77
2023/10/12 00:22:34;;;;;;;20.23;13.05;;;;;;;;;;6225444;28;20052;-74
2023/10/12 00:25:35;;;;;;;20.05;12.60;;;;;;;;;;6225909;28;20048;-80
2023/10/12 00:28:39;;;;;;;21.02;12.98;;;;;;;;;;6225256;28;20416;-77
2023/10/12 00:31:43;;;;;;;20.25;13.38;;;;;;;;;;6230691;28;20056;-78
2023/10/12 00:34:47;;;;;;;23.80;12.63;;;;;;;;;;6228032;28;20061;-73
2023/10/12 00:37:49;;;;;;;21.05;12.93;;;;;;;;;;6227770;28;20076;-78
2023/10/12 00:40:55;;;;;;;20.25;12.63;;;;;;;;;;6239768;28;20065;-78
2023/10/12 00:44:08;;;;;;;18.65;12.43;;;;;;;;;;6245119;28;20083;-79
2023/10/12 00:47:12;;;;;;;26.42;13.60;;;;;;;;;;6241814;28;20046;-77
2023/10/12 00:50:16;;;;;;;19.30;12.63;;;;;;;;;;6231222;28;20100;-78
2023/10/12 00:53:23;;;;;;;18.83;12.27;;;;;;;;;;6222383;28;20041;-78
2023/10/12 00:56:26;;;;;;;21.98;12.80;;;;;;;;;;6250375;28;20235;-76
2023/10/12 00:59:31;;;;;;;19.30;12.40;;;;;;;;;;6251518;28;20049;-77
2023/10/12 01:02:39;;;;;;;21.88;13.05;;;;;;;;;;6244743;28;20495;-77
2023/10/12 01:05:42;;;;;;;23.67;13.15;;;;;;;;;;6247351;28;20050;-78
2023/10/12 01:08:46;;;;;;;24.40;13.05;;;;;;;;;;6251824;28;20053;-81
2023/10/12 01:11:57;;;;;;;22.38;12.63;;;;;;;;;;6252458;28;20061;-78
2023/10/12 01:15:08;;;;;;;27.40;13.43;;;;;;;;;;6250056;28;21309;-77
2023/10/12 01:18:10;;;;;;;25.73;14.48;;;;;;;;;;6253543;28;20099;-78
2023/10/12 01:21:12;;;;;;;24.73;14.55;;;;;;;;;;6247999;28;20053;-79
2023/10/12 01:24:16;;;;;;;23.08;14.50;;;;;;;;;;6249284;28;20273;-78
2023/10/12 01:27:21;;;;;;;22.60;14.63;;;;;;;;;;6247323;28;20045;-77
2023/10/12 01:30:23;;;;;;;25.40;15.00;;;;;;;;;;6249097;28;20207;-77
2023/10/12 01:33:26;;;;;;;25.13;15.73;;;;;;;;;;6255005;28;20052;-76
2023/10/12 01:36:32;;;;;;;24.55;16.17;;;;;;;;;;6247107;28;20049;-77
2023/10/12 01:39:39;;;;;;;23.42;15.52;;;;;;;;;;6248887;28;20059;-77
2023/10/12 01:42:49;;;;;;;27.40;14.27;;;;;;;;;;6255337;28;20050;-77
2023/10/12 01:45:59;;;;;;;26.17;15.50;;;;;;;;;;6231537;28;20057;-77
2023/10/12 01:49:01;;;;;;;22.45;14.82;;;;;;;;;;6236407;28;20345;-76
2023/10/12 01:52:03;;;;;;;25.10;14.48;;;;;;;;;;6245354;28;20049;-76
2023/10/12 01:55:18;;;;;;;21.17;14.43;;;;;;;;;;6250083;28;20053;-77
2023/10/12 01:58:20;;;;;;;22.70;13.98;;;;;;;;;;6246419;28;20069;-76
2023/10/12 02:01:31;;;;;;;28.73;13.85;;;;;;;;;;6247899;28;20054;-78
2023/10/12 02:04:39;;;;;;;27.90;14.27;;;;;;;;;;6247008;28;20336;-78
2023/10/12 02:07:41;;;;;;;27.23;14.20;;;;;;;;;;6251061;28;20057;-78
2023/10/12 02:10:56;;;;;;;20.15;13.43;;;;;;;;;;6255142;28;20061;-77
2023/10/12 02:14:01;;;;;;;26.75;15.05;;;;;;;;;;6248439;28;20037;-77
2023/10/12 02:17:04;;;;;;;24.75;14.38;;;;;;;;;;6247763;28;20357;-77
2023/10/12 02:20:11;;;;;;;22.42;14.43;;;;;;;;;;6252944;28;20056;-77
2023/10/12 02:23:13;;;;;;;25.20;13.57;;;;;;;;;;6251557;28;20535;-77
2023/10/12 02:26:28;;;;;;;28.35;15.13;;;;;;;;;;6248482;28;20056;-77
2023/10/12 02:29:35;;;;;;;24.25;14.77;;;;;;;;;;6247719;28;20049;-77
2023/10/12 02:32:46;;;;;;;21.77;14.55;;;;;;;;;;6257194;28;20058;-77
2023/10/12 02:35:49;;;;;;;25.88;14.63;;;;;;;;;;6250996;28;20049;-80
2023/10/12 02:38:52;;;;;;;23.10;14.95;;;;;;;;;;6256371;28;20053;-79
2023/10/12 02:42:10;;;;;;;21.73;14.00;;;;;;;;;;6257001;28;20136;-80
2023/10/12 02:45:19;;;;;;;20.10;13.30;;;;;;;;;;6258968;28;20064;-80
2023/10/12 02:48:24;;;;;;;25.17;13.73;;;;;;;;;;6256766;28;20041;-79
2023/10/12 02:51:26;;;;;;;21.65;13.15;;;;;;;;;;6254347;28;20046;-79
2023/10/12 02:54:38;;;;;;;24.92;14.20;;;;;;;;;;6253586;28;20272;-80
2023/10/12 02:57:52;;;;;;;21.88;13.40;;;;;;;;;;6247763;28;20057;-79
2023/10/12 03:00:58;;;;;;;24.58;15.15;;;;;;;;;;6260251;28;20301;-80
2023/10/12 03:04:02;;;;;;;22.95;14.25;;;;;;;;;;6255095;28;20049;-81
2023/10/12 03:07:11;;;;;;;20.05;13.55;;;;;;;;;;6256987;28;20053;-80
2023/10/12 03:10:24;;;;;;;21.13;13.77;;;;;;;;;;6255435;28;20061;-80
2023/10/12 03:13:34;;;;;;;22.58;13.80;;;;;;;;;;6257006;28;20045;-79
2023/10/12 03:16:41;;;;;;;22.48;14.07;;;;;;;;;;6252197;28;20130;-80
2023/10/12 03:19:48;;;;;;;23.30;13.57;;;;;;;;;;6259175;28;20493;-79
2023/10/12 03:22:52;;;;;;;21.60;13.38;;;;;;;;;;6256014;28;20058;-79
2023/10/12 03:25:54;;;;;;;22.52;13.68;;;;;;;;;;6256681;28;20262;-80
2023/10/12 03:29:08;;;;;;;18.60;13.13;;;;;;;;;;6255629;28;20049;-79
2023/10/12 03:32:11;;;;;;;22.48;12.93;;;;;;;;;;6226394;28;20038;-81
2023/10/12 03:35:23;;;;;;;22.17;13.52;;;;;;;;;;6225085;28;20201;-79
2023/10/12 03:38:25;;;;;;;20.10;12.23;;;;;;;;;;6226802;28;20226;-80
2023/10/12 03:44:51;;;;;;;19.27;12.40;;;;;;;;;;6232558;28;20073;-80
2023/10/12 03:48:04;;;;;;;17.23;13.05;;;;;;;;;;6226772;28;20222;-81
2023/10/12 03:51:24;;;;;;;19.58;12.73;;;;;;;;;;6228279;28;20113;-79
2023/10/12 03:54:28;;;;;;;21.92;13.70;;;;;;;;;;6225398;28;20334;-80
2023/10/12 03:57:38;;;;;;;23.42;13.80;;;;;;;;;;6231202;28;20053;-80
2023/10/12 04:00:48;;;;;;;21.60;13.70;;;;;;;;;;6234696;28;20050;-80
2023/10/12 04:03:58;;;;;;;19.70;13.27;;;;;;;;;;6230169;28;20322;-79
2023/10/12 04:07:16;;;;;;;21.40;13.20;;;;;;;;;;6232751;28;20084;-79
2023/10/12 04:11:01;;;;;;;25.35;13.07;;;;;;;;;;6227964;28;20080;-80
2023/10/12 04:17:09;;;;;;;17.83;12.68;;;;;;;;;;6228789;28;20046;-79
2023/10/12 04:20:15;;;;;;;17.90;11.77;;;;;;;;;;6225743;28;20103;-76
2023/10/12 04:26:38;;;;;;;21.50;13.50;;;;;;;;;;6261601;28;20053;-77
2023/10/12 04:29:39;;;;;;;26.50;13.80;;;;;;;;;;6251414;28;20057;-78
2023/10/12 04:32:53;;;;;;;18.30;13.00;;;;;;;;;;6251105;28;20112;-78
2023/10/12 04:36:10;;;;;;;;;;;;;;;;;;6253066;28;20385;-78
2023/10/12 04:39:15;;;;;;;27.90;13.68;;;;;;;;;;6253756;28;20181;-78
2023/10/12 04:42:23;;;;;;;27.95;17.38;;;;;;;;;;6251387;28;20069;-78
2023/10/12 04:45:27;;;;;;;26.48;17.02;;;;;;;;;;6249403;28;20097;-77
2023/10/12 04:48:31;;;;;;;26.10;15.70;;;;;;;;;;6248740;28;20245;-78
2023/10/12 04:51:39;;;;;;;23.58;14.70;;;;;;;;;;6246048;28;20056;-78
2023/10/12 04:54:59;;;;;;;25.77;15.38;;;;;;;;;;6251446;28;20044;-78
2023/10/12 04:58:15;;;;;;;21.45;14.52;;;;;;;;;;6251417;28;20076;-78
2023/10/12 05:01:20;;;;;;;22.92;14.10;;;;;;;;;;6250110;28;20330;-77
2023/10/12 05:04:35;;;;;;;21.50;13.40;;;;;;;;;;6253308;28;20078;-78
2023/10/12 05:07:53;;;;;;;28.48;16.05;;;;;;;;;;6252058;28;20061;-78
2023/10/12 05:10:55;;;;;;;24.75;15.40;;;;;;;;;;6248939;28;20053;-78
2023/10/12 05:14:01;;;;;;;23.85;14.88;;;;;;;;;;6247722;28;20072;-78
2023/10/12 05:17:03;;;;;;;25.63;16.02;;;;;;;;;;6252287;28;20207;-78
2023/10/12 05:20:07;;;;;;;23.40;15.13;;;;;;;;;;6241488;28;20057;-78
2023/10/12 05:23:10;;;;;;;25.80;15.52;;;;;;;;;;6246963;28;20057;-77
2023/10/12 05:26:14;;;;;;;26.38;15.10;;;;;;;;;;6257019;28;20053;-77
2023/10/12 05:29:34;;;;;;;27.35;16.88;;;;;;;;;;6243674;28;20048;-77
2023/10/12 05:32:42;;;;;;;35.60;16.27;;;;;;;;;;6252262;28;20058;-78
2023/10/12 05:35:52;;;;;;;24.90;16.50;;;;;;;;;;6243503;28;20092;-78
2023/10/12 05:39:09;;;;;;;26.10;15.32;;;;;;;;;;6245319;28;20046;-77
2023/10/12 05:42:11;;;;;;;32.72;16.05;;;;;;;;;;6235959;28;20176;-78
2023/10/12 05:45:21;;;;;;;23.02;14.95;;;;;;;;;;6237696;28;20057;-77
2023/10/12 05:48:23;;;;;;;27.17;16.95;;;;;;;;;;6238811;28;20245;-77
2023/10/12 05:51:27;;;;;;;26.05;15.77;;;;;;;;;;6250800;28;20049;-77
2023/10/12 05:54:31;;;;;;;27.70;15.00;;;;;;;;;;6252393;28;20322;-77
2023/10/12 05:57:32;;;;;;;24.48;15.35;;;;;;;;;;6252023;28;20049;-77
2023/10/12 06:00:36;;;;;;;23.63;14.63;;;;;;;;;;6252496;28;20103;-77
2023/10/12 06:03:39;;;;;;;23.58;15.05;;;;;;;;;;6252736;28;20101;-77
2023/10/12 06:06:43;;;;;;;27.10;15.63;;;;;;;;;;6244564;28;20494;-77
2023/10/12 06:09:44;;;;;;;32.42;15.90;;;;;;;;;;6245067;28;20345;-77
2023/10/12 06:12:47;;;;;;;23.05;16.05;;;;;;;;;;6253330;28;20050;-78
2023/10/12 06:15:53;;;;;;;23.98;15.02;;;;;;;;;;6249127;28;20057;-77
2023/10/12 06:18:55;;;;;;;25.58;14.82;;;;;;;;;;6250553;28;20343;-78
2023/10/12 06:21:58;;;;;;;24.20;14.45;;;;;;;;;;6253458;28;20057;-77
2023/10/12 06:25:00;;;;;;;22.88;15.00;;;;;;;;;;6246245;28;20100;-78
2023/10/12 06:28:06;;;;;;;30.10;15.50;;;;;;;;;;6250443;28;20108;-78
2023/10/12 06:31:08;;;;;;;25.55;15.10;;;;;;;;;;6250427;28;20116;-77
2023/10/12 06:34:12;;;;;;;22.40;15.98;;;;;;;;;;6256853;28;20057;-77
2023/10/12 06:40:47;;;;;;;22.92;14.20;;;;;;;;;;6252783;28;20145;-77
2023/10/12 06:44:13;;;;;;;22.75;14.95;;;;;;;;;;6245041;28;20069;-77
2023/10/12 06:47:41;;;;;;;31.42;16.98;;;;;;;;;;6244460;28;20310;-77
2023/10/12 06:50:41;;;;;;;25.42;14.70;;;;;;;;;;6220852;28;20354;-77
2023/10/12 06:53:52;;;;;;;25.23;15.35;;;;;;;;;;6241284;28;20061;-77
2023/10/12 06:57:12;;;;;;;25.52;16.83;;;;;;;;;;6254964;28;20045;-77
2023/10/12 07:03:33;;;;;;;26.13;16.63;;;;;;;;;;6246920;28;20066;-77
2023/10/12 07:06:38;;;;;;;25.80;15.60;;;;;;;;;;6248054;28;20061;-77
2023/10/12 07:09:44;;;;;;;24.08;14.57;;;;;;;;;;6255876;28;20053;-77
2023/10/12 07:12:48;;;;;;;23.65;14.73;;;;;;;;;;6252595;28;20834;-77
2023/10/12 07:15:51;;;;;;;;;;;;;;;;;;6253862;28;20342;-77
2023/10/12 07:18:53;;;;;;;22.42;13.90;;;;;;;;;;6257799;28;19923;-77
2023/10/12 07:21:55;;;;;;;20.10;12.52;;;;;;;;;;6249276;28;20060;-77
2023/10/12 07:24:58;;;;;;;24.75;13.50;;;;;;;;;;6249152;28;20058;-77
2023/10/12 07:28:00;;;;;;;24.40;12.82;;;;;;;;;;6258054;28;20091;-77
2023/10/12 07:31:37;;;;;;;28.65;15.10;;;;;;;;;;6251621;28;20120;-78
2023/10/12 07:34:39;;;;;;;21.38;12.35;;;;;;;;;;6255734;28;20238;-77
2023/10/12 07:37:42;;;;;;;24.15;13.63;;;;;;;;;;6257859;28;20053;-77
2023/10/12 07:40:55;;;;;;;24.23;12.93;;;;;;;;;;6256663;28;20045;-76
2023/10/12 07:43:57;;;;;;;24.75;14.02;;;;;;;;;;6248334;28;20230;-76
2023/10/12 07:47:04;;;;;;;22.75;12.13;;;;;;;;;;6255018;28;20424;-77
2023/10/12 07:50:09;;;;;;;18.92;11.70;;;;;;;;;;6257265;28;20057;-77
2023/10/12 07:53:22;;;;;;;18.08;10.98;;;;;;;;;;6253306;28;20372;-77
2023/10/12 07:56:31;;;;;;;19.60;10.73;;;;;;;;;;6255406;28;20261;-77
2023/10/12 07:59:33;;;;;;;20.63;12.07;;;;;;;;;;6255033;28;20098;-77
2023/10/12 08:03:05;;;;;;;26.30;12.98;;;;;;;;;;6254837;28;20053;-77
2023/10/12 08:06:15;;;;;;;19.92;12.85;;;;;;;;;;6251905;28;20045;-77
2023/10/12 08:09:47;;;;;;;24.42;14.38;;;;;;;;;;6251751;28;20134;-78
2023/10/12 08:12:50;;;;;;;25.40;14.82;;;;;;;;;;6248633;28;20051;-78
2023/10/12 08:15:56;;;;;;;21.83;13.55;;;;;;;;;;6256188;28;20060;-77
2023/10/12 08:19:27;;;;;;;22.50;13.68;;;;;;;;;;6251102;28;20081;-77
2023/10/12 08:22:29;;;;;;;23.45;13.15;;;;;;;;;;6253391;28;20117;-77
2023/10/12 08:25:38;;;;;;;26.98;14.00;;;;;;;;;;6253605;28;20227;-77
2023/10/12 08:28:55;;;;;;;27.05;14.45;;;;;;;;;;6251003;28;20057;-78
2023/10/12 08:32:11;;;;;;;30.65;16.05;;;;;;;;;;6242372;28;20254;-78
2023/10/12 08:35:37;;;;;;;28.45;15.70;;;;;;;;;;6247118;28;20042;-77
2023/10/12 08:38:40;;;;;;;31.20;16.05;;;;;;;;;;6244701;28;20041;-78
2023/10/12 08:41:57;;;;;;;28.05;15.52;;;;;;;;;;6235991;28;20050;-78
2023/10/12 08:45:07;;;;;;;25.67;15.93;;;;;;;;;;6242239;28;20100;-78
2023/10/12 08:48:09;;;;;;;25.85;15.60;;;;;;;;;;6228127;28;20104;-77
2023/10/12 08:51:16;;;;;;;28.43;16.30;;;;;;;;;;6227785;28;20326;-77
2023/10/12 08:54:20;;;;;;;26.88;15.20;;;;;;;;;;6229533;28;20136;-78
2023/10/12 08:57:35;;;;;;;28.90;17.42;;;;;;;;;;6224981;28;20050;-77
2023/10/12 09:00:43;;;;;;;35.20;17.67;;;;;;;;;;6226061;28;20105;-78
2023/10/12 09:03:53;;;;;;;31.95;17.98;;;;;;;;;;6225857;28;20122;-78
2023/10/12 09:06:55;;;;;;;26.75;16.63;;;;;;;;;;6229255;28;20060;-78
2023/10/12 09:10:02;;;;;;;30.23;17.85;;;;;;;;;;6229119;28;20057;-78
2023/10/12 09:13:05;;;;;;;25.17;15.30;;;;;;;;;;6241551;28;20080;-78
2023/10/12 09:16:11;;;;;;;28.30;17.27;;;;;;;;;;6249253;28;20333;-77
2023/10/12 09:19:25;;;;;;;25.58;16.08;;;;;;;;;;6250094;28;20120;-78
2023/10/12 09:22:29;;;;;;;28.33;17.15;;;;;;;;;;6253375;28;20057;-78
2023/10/12 09:29:07;;;;;;;33.35;19.25;;;;;;;;;;6226183;28;20045;-78
2023/10/12 09:32:15;;;;;;;28.35;18.50;;;;;;;;;;6229285;28;20136;-78
2023/10/12 09:35:19;;;;;;;32.47;18.85;;;;;;;;;;6222427;28;20069;-77
2023/10/12 09:38:21;;;;;;;35.80;19.85;;;;;;;;;;6224963;28;20054;-78
2023/10/12 09:41:26;;;;;;;41.63;20.92;;;;;;;;;;6223984;28;20054;-79
2023/10/12 09:44:37;;;;;;;31.95;19.88;;;;;;;;;;6229817;28;20048;-77
2023/10/12 09:47:50;;;;;;;27.40;17.35;;;;;;;;;;6238453;28;20238;-77
2023/10/12 09:50:53;;;;;;;28.02;17.80;;;;;;;;;;6251310;28;20054;-77
2023/10/12 09:53:59;;;;;;;35.00;20.42;;;;;;;;;;6223264;28;20065;-76
2023/10/12 09:57:16;;;;;;;39.72;21.95;;;;;;;;;;6227089;28;20115;-77
2023/10/12 10:00:29;;;;;;;32.08;20.10;;;;;;;;;;6227410;28;20385;-78
2023/10/12 10:03:38;;;;;;;33.40;20.08;;;;;;;;;;6228980;28;20058;-78
2023/10/12 10:06:45;;;;;;;31.67;20.38;;;;;;;;;;6222791;28;20084;-77
2023/10/12 10:09:49;;;;;;;33.63;21.50;;;;;;;;;;6226696;28;20220;-77
2023/10/12 10:12:51;;;;;;;37.95;20.30;;;;;;;;;;6230660;28;20108;-77
2023/10/12 10:15:56;;;;;;;31.58;21.20;;;;;;;;;;6222855;28;20211;-78
2023/10/12 10:19:13;;;;;;;32.35;19.10;;;;;;;;;;6224128;28;20054;-77
2023/10/12 10:22:15;;;;;;;33.92;21.13;;;;;;;;;;6225314;28;20061;-78
2023/10/12 10:25:18;;;;;;;32.38;19.70;;;;;;;;;;6225393;28;20961;-77
2023/10/12 10:28:23;;;;;;;40.05;21.60;;;;;;;;;;6229909;28;20282;-76
2023/10/12 10:31:26;;;;;;;33.50;20.65;;;;;;;;;;6229595;28;20286;-77
2023/10/12 10:34:34;;;;;;;;;;;;;;;;;;6222143;28;20085;-77
2023/10/12 10:37:47;;;;;;;33.45;21.75;;;;;;;;;;6220032;28;19917;-77
2023/10/12 10:40:49;;;;;;;34.17;19.33;;;;;;;;;;6229237;28;20050;-77
2023/10/12 10:43:53;;;;;;;33.65;20.38;;;;;;;;;;6231205;28;20081;-77
2023/10/12 10:46:57;;;;;;;43.38;22.33;;;;;;;;;;6246926;28;20053;-78
2023/10/12 10:50:00;;;;;;;38.40;21.48;;;;;;;;;;6244634;28;20238;-78
2023/10/12 10:53:08;;;;;;;29.98;20.20;;;;;;;;;;6235938;28;20432;-76
2023/10/12 10:56:13;;;;;;;29.65;17.27;;;;;;;;;;6252488;28;20049;-77
2023/10/12 10:59:18;;;;;;;31.85;17.25;;;;;;;;;;6255047;28;20049;-77
2023/10/12 11:02:21;;;;;;;28.13;15.02;;;;;;;;;;6256896;28;20138;-77
2023/10/12 11:05:28;;;;;;;22.13;14.30;;;;;;;;;;6255045;28;20054;-77
2023/10/12 11:08:32;;;;;;;21.90;14.95;;;;;;;;;;6259575;28;20253;-77
2023/10/12 11:11:44;;;;;;;26.52;15.75;;;;;;;;;;6232793;28;20360;-77
2023/10/12 11:14:52;;;;;;;30.30;18.98;;;;;;;;;;6220728;28;20054;-77
2023/10/12 11:17:57;;;;;;;28.00;16.48;;;;;;;;;;6231900;28;20205;-77
2023/10/12 11:21:03;;;;;;;21.13;13.32;;;;;;;;;;6234247;28;20046;-78
2023/10/12 11:24:09;;;;;;;31.75;16.08;;;;;;;;;;6230771;28;20080;-78
2023/10/12 11:27:11;;;;;;;25.67;14.25;;;;;;;;;;6226049;28;20127;-76
2023/10/12 11:30:19;;;;;;;26.48;14.98;;;;;;;;;;6231226;28;20123;-77
2023/10/12 11:33:28;;;;;;;21.77;13.15;;;;;;;;;;6228512;28;20096;-77
2023/10/12 11:36:32;;;;;;;20.58;13.85;;;;;;;;;;6226581;28;20108;-75
2023/10/12 11:39:41;;;;;;;26.30;14.90;;;;;;;;;;6224918;28;20058;-77
2023/10/12 11:42:52;;;;;;;22.27;14.77;;;;;;;;;;6225162;28;20057;-75
2023/10/12 11:45:56;;;;;;;20.73;12.73;;;;;;;;;;6229861;28;20246;-79
2023/10/12 11:49:04;;;;;;;21.35;13.18;;;;;;;;;;6229187;28;20050;-78
2023/10/12 11:52:14;;;;;;;25.60;11.70;;;;;;;;;;6230316;28;20058;-76
2023/10/12 11:55:20;;;;;;;18.88;11.80;;;;;;;;;;6225072;28;20117;-77
2023/10/12 11:58:21;;;;;;;21.70;13.30;;;;;;;;;;6227217;28;20046;-77
2023/10/12 12:01:27;;;;;;;;;;;;;;;;;;6226145;28;20068;-76
2023/10/12 12:04:38;;;;;;;23.85;15.25;;;;;;;;;;6244350;28;20194;-72
2023/10/12 12:07:42;;;;;;;23.05;11.57;;;;;;;;;;6230934;28;20049;-72
2023/10/12 12:10:54;;;;;;;23.67;14.73;;;;;;;;;;6223704;28;20047;-72
2023/10/12 12:13:55;;;;;;;28.55;13.60;;;;;;;;;;6224761;28;20108;-73
2023/10/12 12:16:57;;;;;;;26.83;13.23;;;;;;;;;;6228607;28;20453;-73
2023/10/12 12:19:59;;;;;;;21.23;12.00;;;;;;;;;;6243159;28;20103;-73
2023/10/12 12:23:04;;;;;;;28.77;16.73;;;;;;;;;;6231564;28;20046;-74
2023/10/12 12:26:07;;;;;;;22.75;15.25;;;;;;;;;;6227911;28;20057;-74
2023/10/12 12:29:11;;;;;;;25.58;14.40;;;;;;;;;;6231563;28;20105;-74
2023/10/12 12:32:14;;;;;;;20.77;12.82;;;;;;;;;;6227603;28;20050;-74
2023/10/12 12:35:16;;;;;;;20.98;12.85;;;;;;;;;;6224610;28;20096;-74
2023/10/12 12:38:28;;;;;;;22.35;13.65;;;;;;;;;;6227926;28;20109;-74
2023/10/12 12:41:30;;;;;;;26.73;14.17;;;;;;;;;;6249603;28;20046;-75
2023/10/12 12:44:32;;;;;;;22.43;14.20;;;;;;;;;;6224838;28;20688;-74
2023/10/12 12:47:34;;;;;;;23.80;14.43;;;;;;;;;;6228428;28;20058;-73
2023/10/12 12:50:35;;;;;;;23.92;14.60;;;;;;;;;;6227482;28;20246;-75
2023/10/12 12:53:39;;;;;;;22.98;14.80;;;;;;;;;;6225929;28;20068;-76
2023/10/12 12:56:42;;;;;;;28.88;14.93;;;;;;;;;;6224487;28;20269;-76
2023/10/12 12:59:44;;;;;;;25.50;13.25;;;;;;;;;;6225879;28;20050;-76
2023/10/12 13:02:46;;;;;;;25.85;11.77;;;;;;;;;;6224883;28;20054;-74
2023/10/12 13:05:47;;;;;;;22.52;12.73;;;;;;;;;;6226295;28;20053;-76
2023/10/12 13:08:51;;;;;;;19.17;11.00;;;;;;;;;;6224992;28;20053;-76
2023/10/12 13:11:52;;;;;;;21.08;10.85;;;;;;;;;;6220360;28;20041;-73
2023/10/12 13:14:55;;;;;;;19.63;9.98;;;;;;;;;;6229265;28;20050;-73
2023/10/12 13:17:57;;;;;;;10.00;6.63;;;;;;;;;;6228594;28;20054;-75
2023/10/12 13:20:59;;;;;;;18.25;9.25;;;;;;;;;;6224492;28;20060;-73
2023/10/12 13:24:06;;;;;;;13.25;8.77;;;;;;;;;;6226080;28;20061;-75
2023/10/12 13:27:08;;;;;;;19.85;7.25;;;;;;;;;;6241822;28;20084;-74
2023/10/12 13:30:11;;;;;;;13.15;7.40;;;;;;;;;;6224871;28;20049;-75
2023/10/12 13:33:13;;;;;;;14.95;8.55;;;;;;;;;;6226053;28;20073;-74
2023/10/12 13:36:15;;;;;;;17.30;8.93;;;;;;;;;;6216219;28;20046;-75
2023/10/12 13:39:18;;;;;;;17.47;8.37;;;;;;;;;;6218720;28;20319;-74
2023/10/12 13:42:21;;;;;;;13.80;8.32;;;;;;;;;;6242709;28;20664;-73
2023/10/12 13:45:28;;;;;;;18.48;11.75;;;;;;;;;;6250556;28;20057;-74
2023/10/12 13:48:30;;;;;;;21.50;11.10;;;;;;;;;;6246207;28;20116;-74
2023/10/12 13:51:32;;;;;;;18.42;10.75;;;;;;;;;;6245853;28;20053;-75
2023/10/12 13:54:35;;;;;;;15.10;10.00;;;;;;;;;;6250799;28;20050;-73
2023/10/12 13:57:36;;;;;;;18.58;10.10;;;;;;;;;;6240541;28;20345;-74
2023/10/12 14:00:39;;;;;;;20.25;11.00;;;;;;;;;;6242816;28;20061;-74
2023/10/12 14:03:45;;;;;;;17.45;10.30;;;;;;;;;;6244777;28;20109;-75
2023/10/12 14:06:46;;;;;;;18.20;10.50;;;;;;;;;;6246993;28;20063;-74
2023/10/12 14:09:49;;;;;;;18.80;9.85;;;;;;;;;;6246345;28;20052;-74
2023/10/12 14:12:53;;;;;;;17.45;8.82;;;;;;;;;;6247590;28;20052;-74
2023/10/12 14:15:54;;;;;;;14.02;9.70;;;;;;;;;;6251225;28;20062;-75
2023/10/12 14:18:56;;;;;;;17.02;9.73;;;;;;;;;;6250598;28;20057;-72
2023/10/12 14:22:00;;;;;;;18.58;9.80;;;;;;;;;;6252463;28;20054;-74
2023/10/12 14:25:06;;;;;;;18.73;9.70;;;;;;;;;;6256944;28;20349;-75
2023/10/12 14:28:08;;;;;;;18.90;8.77;;;;;;;;;;6250451;28;20061;-75
2023/10/12 14:31:10;;;;;;;18.23;10.52;;;;;;;;;;6259932;28;20230;-75
2023/10/12 14:34:13;;;;;;;17.88;10.52;;;;;;;;;;6255687;28;20053;-74
2023/10/12 14:37:15;;;;;;;17.52;9.43;;;;;;;;;;6245766;28;20873;-74
2023/10/12 14:40:19;;;;;;;18.08;9.00;;;;;;;;;;6250546;28;20064;-75
2023/10/12 14:43:23;;;;;;;18.98;9.70;;;;;;;;;;6251053;28;20602;-74
2023/10/12 14:46:29;;;;;;;15.98;9.52;;;;;;;;;;6250641;28;20065;-74
2023/10/12 14:49:33;;;;;;;18.33;9.70;;;;;;;;;;6256846;28;20100;-75
2023/10/12 14:52:38;;;;;;;25.77;8.82;;;;;;;;;;6256634;28;20072;-75
2023/10/12 14:55:42;;;;;;;19.92;9.68;;;;;;;;;;6253706;28;20333;-76
2023/10/12 14:58:43;;;;;;;16.42;10.23;;;;;;;;;;6255247;28;20053;-75
2023/10/12 15:01:45;;;;;;;14.80;9.88;;;;;;;;;;6253655;28;20053;-74
2023/10/12 15:04:48;;;;;;;15.73;9.60;;;;;;;;;;6247581;28;20045;-78
2023/10/12 15:07:50;;;;;;;19.58;9.95;;;;;;;;;;6250861;28;20041;-78
2023/10/12 15:10:57;;;;;;;16.05;9.13;;;;;;;;;;6256437;28;20056;-79
2023/10/12 15:14:00;;;;;;;22.65;10.38;;;;;;;;;;6255647;28;20104;-75
2023/10/12 15:17:02;;;;;;;17.83;9.77;;;;;;;;;;6251649;28;20049;-78
2023/10/12 15:20:05;;;;;;;21.13;9.97;;;;;;;;;;6250453;28;20058;-76
2023/10/12 15:23:07;;;;;;;15.43;10.15;;;;;;;;;;6248189;28;20542;-75
2023/10/12 15:26:13;;;;;;;15.93;9.02;;;;;;;;;;6248969;28;20053;-74
2023/10/12 15:29:15;;;;;;;23.25;10.57;;;;;;;;;;6256561;28;20230;-75
2023/10/12 15:32:16;;;;;;;14.48;9.07;;;;;;;;;;6252361;28;20046;-76
2023/10/12 15:35:23;;;;;;;17.40;8.65;;;;;;;;;;6242306;28;20119;-75
2023/10/12 15:38:30;;;;;;;22.33;10.05;;;;;;;;;;6253749;28;20049;-76
2023/10/12 15:41:34;;;;;;;15.40;10.13;;;;;;;;;;6249676;28;20053;-75
2023/10/12 15:44:39;;;;;;;18.95;10.65;;;;;;;;;;6251332;28;20056;-75
2023/10/12 15:47:41;;;;;;;16.77;8.70;;;;;;;;;;6248426;28;20064;-75
2023/10/12 15:50:42;;;;;;;18.73;9.30;;;;;;;;;;6250531;28;20396;-74
2023/10/12 15:53:44;;;;;;;14.43;8.27;;;;;;;;;;6250315;28;20046;-75
2023/10/12 15:56:47;;;;;;;16.30;9.07;;;;;;;;;;6253720;28;20076;-76
2023/10/12 15:59:49;;;;;;;;;;;;;;;;;;6251731;28;20051;-76
2023/10/12 16:02:52;;;;;;;21.23;9.55;;;;;;;;;;6249728;28;19916;-76
2023/10/12 16:05:54;;;;;;;14.45;8.15;;;;;;;;;;6251502;28;20076;-75
2023/10/12 16:08:56;;;;;;;26.02;9.32;;;;;;;;;;6249188;28;20041;-75
2023/10/12 16:11:59;;;;;;;28.50;9.53;;;;;;;;;;6252023;28;20523;-74
2023/10/12 16:15:02;;;;;;;20.73;8.10;;;;;;;;;;6254496;28;20060;-75
2023/10/12 16:18:04;;;;;;;26.80;8.77;;;;;;;;;;6256755;28;20376;-75
2023/10/12 16:21:08;;;;;;;29.85;9.68;;;;;;;;;;6246840;28;20475;-76
2023/10/12 16:24:10;;;;;;;26.35;8.82;;;;;;;;;;6252620;28;20245;-76
2023/10/12 16:27:13;;;;;;;139.23;74.95;;;;;;;;;;6253235;28;20234;-76
2023/10/12 16:30:15;;;;;;;114.43;62.50;;;;;;;;;;6249424;28;20057;-75
2023/10/12 16:33:18;;;;;;;23.02;10.98;;;;;;;;;;6252592;28;20041;-74
2023/10/12 16:36:20;;;;;;;28.55;9.73;;;;;;;;;;6247370;28;20091;-75
2023/10/12 16:39:27;;;;;;;15.65;8.60;;;;;;;;;;6226952;28;20157;-76
2023/10/12 16:42:30;;;;;;;18.42;9.02;;;;;;;;;;6240016;28;20053;-77
2023/10/12 16:45:33;;;;;;;16.77;8.80;;;;;;;;;;6239386;28;20056;-74
2023/10/12 16:48:35;;;;;;;26.83;10.57;;;;;;;;;;6245551;28;20061;-76
2023/10/12 16:51:37;;;;;;;23.88;10.35;;;;;;;;;;6249214;28;20053;-76
2023/10/12 16:54:38;;;;;;;26.25;9.45;;;;;;;;;;6254105;28;20350;-76
2023/10/12 16:57:42;;;;;;;19.45;8.90;;;;;;;;;;6248795;28;20152;-76
2023/10/12 17:00:44;;;;;;;24.15;10.07;;;;;;;;;;6245984;28;20053;-76
2023/10/12 17:03:47;;;;;;;23.85;9.43;;;;;;;;;;6252933;28;20104;-76
2023/10/12 17:06:49;;;;;;;;;;;;;;;;;;6254561;28;20053;-76
2023/10/12 17:09:51;;;;;;;20.85;8.80;;;;;;;;;;6248729;28;20102;-74
2023/10/12 17:12:54;;;;;;;20.58;9.65;;;;;;;;;;6246894;28;20342;-76
2023/10/12 17:15:57;;;;;;;;;;;;;;;;;;6241431;28;20293;-76
2023/10/12 17:18:59;;;;;;;19.33;10.37;;;;;;;;;;6226413;28;19975;-76
2023/10/12 17:22:03;;;;;;;25.50;9.85;;;;;;;;;;6247199;28;20464;-76
2023/10/12 17:25:10;;;;;;;26.13;12.02;;;;;;;;;;6244218;28;20115;-75
2023/10/12 17:28:13;;;;;;;26.33;12.10;;;;;;;;;;6257279;28;20092;-75
2023/10/12 17:31:15;;;;;;;;;;;;;;;;;;6253220;28;20045;-75
2023/10/12 17:34:17;;;;;;;25.88;11.52;;;;;;;;;;6246070;28;20202;-76
2023/10/12 17:37:19;;;;;;;34.38;12.93;;;;;;;;;;6247553;28;20054;-75
2023/10/12 17:40:23;;;;;;;31.50;13.68;;;;;;;;;;6247334;28;20280;-76
2023/10/12 17:43:30;;;;;;;27.27;12.88;;;;;;;;;;6255163;28;20053;-76
2023/10/12 17:46:35;;;;;;;27.10;12.27;;;;;;;;;;6252375;28;20056;-76
2023/10/12 17:49:37;;;;;;;30.80;11.82;;;;;;;;;;6248260;28;20057;-77
2023/10/12 17:52:40;;;;;;;25.42;11.38;;;;;;;;;;6251367;28;20065;-79
2023/10/12 17:55:42;;;;;;;;;;;;;;;;;;6247464;28;20126;-77
2023/10/12 17:58:46;;;;;;;25.65;10.98;;;;;;;;;;6248794;28;20198;-77
2023/10/12 18:01:48;;;;;;;27.48;12.55;;;;;;;;;;6253533;28;20175;-78
2023/10/12 18:04:50;;;;;;;26.73;12.68;;;;;;;;;;6249368;28;20326;-78
2023/10/12 18:07:55;;;;;;;23.60;12.75;;;;;;;;;;6249790;28;20125;-78
2023/10/12 18:11:03;;;;;;;23.27;10.88;;;;;;;;;;6247817;28;20326;-78
2023/10/12 18:14:07;;;;;;;21.50;11.10;;;;;;;;;;6248215;28;20052;-77
2023/10/12 18:17:09;;;;;;;23.77;11.57;;;;;;;;;;6246684;28;20342;-78
2023/10/12 18:20:14;;;;;;;23.25;10.45;;;;;;;;;;6253571;28;20307;-77
2023/10/12 18:23:16;;;;;;;17.35;11.02;;;;;;;;;;6253220;28;20069;-79
2023/10/12 18:26:18;;;;;;;21.77;10.82;;;;;;;;;;6253059;28;20057;-79